sensor_id;sensor_type;location;lat;lon;timestamp;pressure;altitude;pressure_sealevel;temperature;humidity
30730;BME280;17476;48.458;7.928;2023-01-27T00:00:14;100342.97;;;1.20;90.18
30730;BME280;17476;48.458;7.928;2023-01-27T00:02:41;100341.19;;;1.21;91.36
30730;BME280;17476;48.458;7.928;2023-01-27T00:05:10;100339.84;;;1.29;91.54
30730;BME280;17476;48.458;7.928;2023-01-27T00:07:37;100337.16;;;1.31;91.01
30730;BME280;17476;48.458;7.928;2023-01-27T00:10:04;100342.84;;;1.36;91.17
30730;BME280;17476;48.458;7.928;2023-01-27T00:12:31;100336.94;;;1.34;91.03
30730;BME280;17476;48.458;7.928;2023-01-27T00:15:15;100335.97;;;1.36;90.77
30730;BME280;17476;48.458;7.928;2023-01-27T00:17:41;100327.41;;;1.36;91.20
30730;BME280;17476;48.458;7.928;2023-01-27T00:20:09;100334.94;;;1.39;90.91
30730;BME280;17476;48.458;7.928;2023-01-27T00:22:35;100333.56;;;1.33;90.91
30730;BME280;17476;48.458;7.928;2023-01-27T00:25:20;100334.31;;;1.35;91.33
30730;BME280;17476;48.458;7.928;2023-01-27T00:27:46;100332.34;;;1.39;91.17
30730;BME280;17476;48.458;7.928;2023-01-27T00:30:12;100325.44;;;1.40;90.98
30730;BME280;17476;48.458;7.928;2023-01-27T00:32:38;100327.09;;;1.41;90.38
30730;BME280;17476;48.458;7.928;2023-01-27T00:35:22;100333.75;;;1.30;90.84
30730;BME280;17476;48.458;7.928;2023-01-27T00:37:48;100322.69;;;1.28;91.49
30730;BME280;17476;48.458;7.928;2023-01-27T00:40:15;100332.72;;;1.33;91.47
30730;BME280;17476;48.458;7.928;2023-01-27T00:42:42;100329.16;;;1.35;91.38
30730;BME280;17476;48.458;7.928;2023-01-27T00:45:09;100335.97;;;1.36;91.43
30730;BME280;17476;48.458;7.928;2023-01-27T00:47:53;100322.69;;;1.28;90.77
30730;BME280;17476;48.458;7.928;2023-01-27T00:50:20;100328.78;;;1.27;91.79
30730;BME280;17476;48.458;7.928;2023-01-27T00:52:46;100326.84;;;1.31;92.06
30730;BME280;17476;48.458;7.928;2023-01-27T00:55:12;100328.28;;;1.35;91.65
30730;BME280;17476;48.458;7.928;2023-01-27T00:57:41;100327.69;;;1.31;91.54
30730;BME280;17476;48.458;7.928;2023-01-27T01:00:10;100328.97;;;1.24;91.57
30730;BME280;17476;48.458;7.928;2023-01-27T01:02:36;100321.25;;;1.24;92.08
30730;BME280;17476;48.458;7.928;2023-01-27T01:05:02;100324.44;;;1.28;91.54
30730;BME280;17476;48.458;7.928;2023-01-27T01:07:28;100326.13;;;1.29;91.12
30730;BME280;17476;48.458;7.928;2023-01-27T01:09:54;100321.88;;;1.28;91.27
30730;BME280;17476;48.458;7.928;2023-01-27T01:12:20;100324.28;;;1.31;91.46
30730;BME280;17476;48.458;7.928;2023-01-27T01:14:46;100326.03;;;1.30;91.34
30730;BME280;17476;48.458;7.928;2023-01-27T01:17:12;100319.94;;;1.31;91.62
30730;BME280;17476;48.458;7.928;2023-01-27T01:19:38;100326.84;;;1.31;90.80
30730;BME280;17476;48.458;7.928;2023-01-27T01:22:03;100321.88;;;1.28;91.57
30730;BME280;17476;48.458;7.928;2023-01-27T01:24:29;100317.75;;;1.25;92.13
30730;BME280;17476;48.458;7.928;2023-01-27T01:26:55;100327.94;;;1.27;92.24
30730;BME280;17476;48.458;7.928;2023-01-27T01:29:21;100318.94;;;1.20;92.15
30730;BME280;17476;48.458;7.928;2023-01-27T01:31:50;100322.25;;;1.22;92.45
30730;BME280;17476;48.458;7.928;2023-01-27T01:34:16;100324.09;;;1.20;91.74
30730;BME280;17476;48.458;7.928;2023-01-27T01:36:42;100323.16;;;1.21;91.53
30730;BME280;17476;48.458;7.928;2023-01-27T01:39:07;100315.53;;;1.19;92.31
30730;BME280;17476;48.458;7.928;2023-01-27T01:41:33;100316.28;;;1.21;92.48
30730;BME280;17476;48.458;7.928;2023-01-27T01:44:25;100315.91;;;1.27;92.03
30730;BME280;17476;48.458;7.928;2023-01-27T01:46:51;100298.16;;;1.23;91.70
30730;BME280;17476;48.458;7.928;2023-01-27T01:49:27;100298.00;;;1.12;92.15
30730;BME280;17476;48.458;7.928;2023-01-27T01:52:04;100301.19;;;1.15;93.04
30730;BME280;17476;48.458;7.928;2023-01-27T01:54:48;100299.75;;;1.11;92.74
30730;BME280;17476;48.458;7.928;2023-01-27T01:57:21;100300.00;;;1.06;92.38
30730;BME280;17476;48.458;7.928;2023-01-27T02:00:00;100292.88;;;0.97;92.95
30730;BME280;17476;48.458;7.928;2023-01-27T02:02:27;100298.75;;;0.99;93.39
30730;BME280;17476;48.458;7.928;2023-01-27T02:08:04;100289.44;;;1.11;93.43
30730;BME280;17476;48.458;7.928;2023-01-27T02:10:33;100286.75;;;1.13;93.05
30730;BME280;17476;48.458;7.928;2023-01-27T02:12:59;100284.53;;;1.21;93.15
30730;BME280;17476;48.458;7.928;2023-01-27T02:15:25;100281.97;;;1.21;92.55
30730;BME280;17476;48.458;7.928;2023-01-27T02:17:53;100281.13;;;1.20;93.39
30730;BME280;17476;48.458;7.928;2023-01-27T02:20:45;100279.22;;;1.24;93.44
30730;BME280;17476;48.458;7.928;2023-01-27T02:26:29;100280.59;;;1.29;92.44
30730;BME280;17476;48.458;7.928;2023-01-27T02:29:03;100276.75;;;1.22;91.99
30730;BME280;17476;48.458;7.928;2023-01-27T02:31:30;100265.50;;;1.23;92.88
30730;BME280;17476;48.458;7.928;2023-01-27T02:34:04;100273.13;;;1.25;92.81
30730;BME280;17476;48.458;7.928;2023-01-27T02:36:39;100284.81;;;1.30;93.47
30730;BME280;17476;48.458;7.928;2023-01-27T02:39:11;100285.09;;;1.26;92.85
30730;BME280;17476;48.458;7.928;2023-01-27T02:41:41;100290.13;;;1.27;92.66
30730;BME280;17476;48.458;7.928;2023-01-27T02:44:08;100294.19;;;1.31;92.57
30730;BME280;17476;48.458;7.928;2023-01-27T02:46:35;100288.75;;;1.36;92.43
30730;BME280;17476;48.458;7.928;2023-01-27T02:49:02;100291.84;;;1.41;91.34
30730;BME280;17476;48.458;7.928;2023-01-27T02:51:28;100283.50;;;1.38;91.27
30730;BME280;17476;48.458;7.928;2023-01-27T02:53:54;100281.91;;;1.35;92.23
30730;BME280;17476;48.458;7.928;2023-01-27T02:56:21;100284.59;;;1.33;91.70
30730;BME280;17476;48.458;7.928;2023-01-27T02:58:47;100288.94;;;1.33;92.65
30730;BME280;17476;48.458;7.928;2023-01-27T03:01:13;100291.25;;;1.23;91.66
30730;BME280;17476;48.458;7.928;2023-01-27T03:03:39;100283.59;;;1.22;92.51
30730;BME280;17476;48.458;7.928;2023-01-27T03:06:15;100272.91;;;1.28;92.86
30730;BME280;17476;48.458;7.928;2023-01-27T03:08:41;100283.16;;;1.29;92.14
30730;BME280;17476;48.458;7.928;2023-01-27T03:11:08;100273.47;;;1.33;92.07
30730;BME280;17476;48.458;7.928;2023-01-27T03:13:34;100281.19;;;1.33;92.08
30730;BME280;17476;48.458;7.928;2023-01-27T03:16:03;100277.69;;;1.34;92.09
30730;BME280;17476;48.458;7.928;2023-01-27T03:18:48;100275.50;;;1.28;91.57
30730;BME280;17476;48.458;7.928;2023-01-27T03:21:18;100275.13;;;1.34;91.37
30730;BME280;17476;48.458;7.928;2023-01-27T03:23:45;100275.50;;;1.28;91.62
30730;BME280;17476;48.458;7.928;2023-01-27T03:26:13;100280.66;;;1.28;92.59
30730;BME280;17476;48.458;7.928;2023-01-27T03:28:39;100279.00;;;1.27;91.59
30730;BME280;17476;48.458;7.928;2023-01-27T03:31:09;100278.28;;;1.25;91.40
30730;BME280;17476;48.458;7.928;2023-01-27T03:33:45;100284.47;;;1.22;91.72
30730;BME280;17476;48.458;7.928;2023-01-27T03:36:13;100286.84;;;1.25;91.49
30730;BME280;17476;48.458;7.928;2023-01-27T03:38:57;100284.47;;;1.22;92.21
30730;BME280;17476;48.458;7.928;2023-01-27T03:41:41;100282.41;;;1.27;91.46
30730;BME280;17476;48.458;7.928;2023-01-27T03:44:26;100294.28;;;1.30;91.71
30730;BME280;17476;48.458;7.928;2023-01-27T03:47:10;100288.31;;;1.29;90.98
30730;BME280;17476;48.458;7.928;2023-01-27T03:49:36;100291.88;;;1.27;91.39
30730;BME280;17476;48.458;7.928;2023-01-27T03:52:02;100292.25;;;1.21;90.85
30730;BME280;17476;48.458;7.928;2023-01-27T03:54:28;100298.25;;;1.21;92.13
30730;BME280;17476;48.458;7.928;2023-01-27T03:56:54;100298.06;;;1.24;92.55
30730;BME280;17476;48.458;7.928;2023-01-27T03:59:20;100295.28;;;1.27;91.58
30730;BME280;17476;48.458;7.928;2023-01-27T04:01:45;100297.03;;;1.27;92.20
30730;BME280;17476;48.458;7.928;2023-01-27T04:04:11;100289.41;;;1.25;91.56
30730;BME280;17476;48.458;7.928;2023-01-27T04:06:56;100293.00;;;1.23;90.94
30730;BME280;17476;48.458;7.928;2023-01-27T04:09:31;100293.75;;;1.25;91.39
30730;BME280;17476;48.458;7.928;2023-01-27T04:12:00;100288.47;;;1.26;90.13
30730;BME280;17476;48.458;7.928;2023-01-27T04:14:37;100294.84;;;1.21;90.79
30730;BME280;17476;48.458;7.928;2023-01-27T04:17:11;100294.94;;;1.19;91.42
30730;BME280;17476;48.458;7.928;2023-01-27T04:19:38;100296.31;;;1.25;91.56
30730;BME280;17476;48.458;7.928;2023-01-27T04:22:05;100295.66;;;1.21;90.32
30730;BME280;17476;48.458;7.928;2023-01-27T04:24:32;100298.34;;;1.20;90.66
30730;BME280;17476;48.458;7.928;2023-01-27T04:27:07;100305.06;;;1.22;90.40
30730;BME280;17476;48.458;7.928;2023-01-27T04:29:35;100297.03;;;1.27;90.34
30730;BME280;17476;48.458;7.928;2023-01-27T04:32:04;100300.19;;;1.18;90.29
30730;BME280;17476;48.458;7.928;2023-01-27T04:34:34;100303.38;;;1.21;90.80
30730;BME280;17476;48.458;7.928;2023-01-27T04:37:00;100320.53;;;1.22;89.51
30730;BME280;17476;48.458;7.928;2023-01-27T04:39:28;100307.44;;;1.25;90.29
30730;BME280;17476;48.458;7.928;2023-01-27T04:41:55;100306.78;;;1.22;90.01
30730;BME280;17476;48.458;7.928;2023-01-27T04:44:22;100310.41;;;1.19;89.65
30730;BME280;17476;48.458;7.928;2023-01-27T04:46:48;100304.16;;;1.09;88.91
30730;BME280;17476;48.458;7.928;2023-01-27T04:49:15;100294.13;;;1.04;89.91
30730;BME280;17476;48.458;7.928;2023-01-27T04:51:41;100306.91;;;1.06;91.86
30730;BME280;17476;48.458;7.928;2023-01-27T04:54:07;100310.66;;;1.15;91.10
30730;BME280;17476;48.458;7.928;2023-01-27T04:56:41;100311.50;;;1.15;90.35
30730;BME280;17476;48.458;7.928;2023-01-27T04:59:12;100316.28;;;1.07;90.22
30730;BME280;17476;48.458;7.928;2023-01-27T05:01:38;100323.03;;;1.09;90.60
30730;BME280;17476;48.458;7.928;2023-01-27T05:04:04;100318.03;;;1.06;90.65
30730;BME280;17476;48.458;7.928;2023-01-27T05:06:31;100315.28;;;1.09;90.88
30730;BME280;17476;48.458;7.928;2023-01-27T05:08:57;100310.88;;;1.12;90.56
30730;BME280;17476;48.458;7.928;2023-01-27T05:11:23;100307.38;;;1.13;90.39
30730;BME280;17476;48.458;7.928;2023-01-27T05:13:48;100312.25;;;1.17;90.16
30730;BME280;17476;48.458;7.928;2023-01-27T05:16:19;100308.41;;;1.10;90.20
30730;BME280;17476;48.458;7.928;2023-01-27T05:18:48;100310.22;;;1.08;89.84
30730;BME280;17476;48.458;7.928;2023-01-27T05:21:18;100314.75;;;1.04;89.97
30730;BME280;17476;48.458;7.928;2023-01-27T05:23:44;100313.66;;;1.08;90.20
30730;BME280;17476;48.458;7.928;2023-01-27T05:26:19;100314.38;;;1.11;90.78
30730;BME280;17476;48.458;7.928;2023-01-27T05:28:47;100315.81;;;1.15;90.67
30730;BME280;17476;48.458;7.928;2023-01-27T05:31:20;100309.66;;;1.17;89.57
30730;BME280;17476;48.458;7.928;2023-01-27T05:33:49;100318.22;;;1.18;90.25
30730;BME280;17476;48.458;7.928;2023-01-27T05:36:18;100311.22;;;1.20;89.88
30730;BME280;17476;48.458;7.928;2023-01-27T05:38:45;100318.22;;;1.18;90.24
30730;BME280;17476;48.458;7.928;2023-01-27T05:41:13;100324.91;;;1.20;90.70
30730;BME280;17476;48.458;7.928;2023-01-27T05:43:41;100315.44;;;1.21;90.29
30730;BME280;17476;48.458;7.928;2023-01-27T05:46:14;100315.28;;;1.24;90.04
30730;BME280;17476;48.458;7.928;2023-01-27T05:48:43;100309.38;;;1.22;89.93
30730;BME280;17476;48.458;7.928;2023-01-27T05:51:11;100310.41;;;1.19;89.50
30730;BME280;17476;48.458;7.928;2023-01-27T05:53:37;100319.66;;;1.22;89.92
30730;BME280;17476;48.458;7.928;2023-01-27T05:56:04;100324.81;;;1.22;89.67
30730;BME280;17476;48.458;7.928;2023-01-27T05:58:31;100331.72;;;1.21;90.13
30730;BME280;17476;48.458;7.928;2023-01-27T06:01:15;100335.22;;;1.20;89.67
30730;BME280;17476;48.458;7.928;2023-01-27T06:03:43;100338.47;;;1.24;89.55
30730;BME280;17476;48.458;7.928;2023-01-27T06:06:10;100340.59;;;1.17;88.98
30730;BME280;17476;48.458;7.928;2023-01-27T06:08:37;100339.09;;;1.13;90.22
30730;BME280;17476;48.458;7.928;2023-01-27T06:11:04;100343.06;;;1.19;90.18
30730;BME280;17476;48.458;7.928;2023-01-27T06:13:31;100340.59;;;1.17;89.51
30730;BME280;17476;48.458;7.928;2023-01-27T06:16:02;100340.03;;;1.12;89.11
30730;BME280;17476;48.458;7.928;2023-01-27T06:18:28;100331.69;;;1.08;89.12
30730;BME280;17476;48.458;7.928;2023-01-27T06:20:59;100334.16;;;1.10;89.97
30730;BME280;17476;48.458;7.928;2023-01-27T06:23:25;100332.50;;;1.09;90.09
30730;BME280;17476;48.458;7.928;2023-01-27T06:25:53;100336.06;;;1.06;89.98
30730;BME280;17476;48.458;7.928;2023-01-27T06:28:19;100332.19;;;1.14;90.18
30730;BME280;17476;48.458;7.928;2023-01-27T06:30:46;100330.44;;;1.14;90.42
30730;BME280;17476;48.458;7.928;2023-01-27T06:33:11;100335.31;;;1.19;90.19
30730;BME280;17476;48.458;7.928;2023-01-27T06:35:40;100335.53;;;1.16;88.82
30730;BME280;17476;48.458;7.928;2023-01-27T06:38:09;100334.16;;;1.10;90.31
30730;BME280;17476;48.458;7.928;2023-01-27T06:40:35;100340.94;;;1.11;89.72
30730;BME280;17476;48.458;7.928;2023-01-27T06:43:01;100338.28;;;1.13;90.57
30730;BME280;17476;48.458;7.928;2023-01-27T06:45:27;100344.81;;;1.18;89.99
30730;BME280;17476;48.458;7.928;2023-01-27T06:47:59;100348.94;;;1.21;90.47
30730;BME280;17476;48.458;7.928;2023-01-27T06:50:28;100345.44;;;1.22;90.08
30730;BME280;17476;48.458;7.928;2023-01-27T06:53:02;100352.97;;;1.25;90.17
30730;BME280;17476;48.458;7.928;2023-01-27T06:55:29;100355.34;;;1.28;90.28
30730;BME280;17476;48.458;7.928;2023-01-27T06:57:55;100356.28;;;1.27;89.82
30730;BME280;17476;48.458;7.928;2023-01-27T07:00:21;100357.94;;;1.28;90.00
30730;BME280;17476;48.458;7.928;2023-01-27T07:02:47;100356.59;;;1.22;89.55
30730;BME280;17476;48.458;7.928;2023-01-27T07:05:14;100370.28;;;1.23;90.42
30730;BME280;17476;48.458;7.928;2023-01-27T07:07:40;100374.41;;;1.25;90.11
30730;BME280;17476;48.458;7.928;2023-01-27T07:10:08;100360.63;;;1.26;90.08
30730;BME280;17476;48.458;7.928;2023-01-27T07:12:34;100368.16;;;1.29;89.84
30730;BME280;17476;48.458;7.928;2023-01-27T07:15:07;100370.44;;;1.34;89.69
30730;BME280;17476;48.458;7.928;2023-01-27T07:17:34;100364.47;;;1.33;89.31
30730;BME280;17476;48.458;7.928;2023-01-27T07:20:01;100365.28;;;1.34;89.17
30730;BME280;17476;48.458;7.928;2023-01-27T07:22:27;100367.88;;;1.34;89.16
30730;BME280;17476;48.458;7.928;2023-01-27T07:24:53;100365.03;;;1.39;89.57
30730;BME280;17476;48.458;7.928;2023-01-27T07:27:24;100362.34;;;1.40;88.92
30730;BME280;17476;48.458;7.928;2023-01-27T07:29:50;100386.09;;;1.31;87.59
30730;BME280;17476;48.458;7.928;2023-01-27T07:32:16;100389.59;;;1.30;89.14
30730;BME280;17476;48.458;7.928;2023-01-27T07:34:42;100389.69;;;1.28;88.50
30730;BME280;17476;48.458;7.928;2023-01-27T07:37:08;100401.66;;;1.29;89.20
30730;BME280;17476;48.458;7.928;2023-01-27T07:39:36;100396.50;;;1.29;89.13
30730;BME280;17476;48.458;7.928;2023-01-27T07:42:03;100397.13;;;1.33;89.07
30730;BME280;17476;48.458;7.928;2023-01-27T07:44:29;100400.44;;;1.35;88.10
30730;BME280;17476;48.458;7.928;2023-01-27T07:46:56;100412.78;;;1.30;89.07
30730;BME280;17476;48.458;7.928;2023-01-27T07:49:22;100406.34;;;1.37;89.25
30730;BME280;17476;48.458;7.928;2023-01-27T07:51:48;100411.41;;;1.39;89.02
30730;BME280;17476;48.458;7.928;2023-01-27T07:54:14;100410.84;;;1.33;88.80
30730;BME280;17476;48.458;7.928;2023-01-27T07:56:40;100398.63;;;1.37;89.04
30730;BME280;17476;48.458;7.928;2023-01-27T07:59:08;100397.50;;;1.41;88.90
30730;BME280;17476;48.458;7.928;2023-01-27T08:01:35;100402.47;;;1.44;88.55
30730;BME280;17476;48.458;7.928;2023-01-27T08:04:01;100409.28;;;1.45;90.02
30730;BME280;17476;48.458;7.928;2023-01-27T08:06:26;100400.97;;;1.54;89.95
30730;BME280;17476;48.458;7.928;2023-01-27T08:08:52;100408.44;;;1.59;89.63
30730;BME280;17476;48.458;7.928;2023-01-27T08:11:18;100411.72;;;1.61;89.62
30730;BME280;17476;48.458;7.928;2023-01-27T08:13:44;100417.53;;;1.64;89.78
30730;BME280;17476;48.458;7.928;2023-01-27T08:16:13;100420.13;;;1.64;89.15
30730;BME280;17476;48.458;7.928;2023-01-27T08:18:39;100421.03;;;1.63;89.16
30730;BME280;17476;48.458;7.928;2023-01-27T08:21:09;100424.34;;;1.66;89.70
30730;BME280;17476;48.458;7.928;2023-01-27T08:23:35;100429.28;;;1.69;89.45
30730;BME280;17476;48.458;7.928;2023-01-27T08:26:03;100427.53;;;1.69;89.00
30730;BME280;17476;48.458;7.928;2023-01-27T08:28:33;100430.69;;;1.60;87.90
30730;BME280;17476;48.458;7.928;2023-01-27T08:31:15;100435.59;;;1.64;88.86
30730;BME280;17476;48.458;7.928;2023-01-27T08:33:44;100430.97;;;1.70;90.02
30730;BME280;17476;48.458;7.928;2023-01-27T08:36:13;100433.25;;;1.74;88.87
30730;BME280;17476;48.458;7.928;2023-01-27T08:38:41;100440.44;;;1.83;91.28
30730;BME280;17476;48.458;7.928;2023-01-27T08:41:12;100440.09;;;2.02;88.83
30730;BME280;17476;48.458;7.928;2023-01-27T08:43:39;100442.19;;;2.10;86.72
30730;BME280;17476;48.458;7.928;2023-01-27T08:46:05;100441.34;;;2.24;88.38
30730;BME280;17476;48.458;7.928;2023-01-27T08:48:32;100440.44;;;2.50;88.37
30730;BME280;17476;48.458;7.928;2023-01-27T08:50:59;100441.34;;;2.76;88.19
30730;BME280;17476;48.458;7.928;2023-01-27T08:53:26;100435.91;;;3.19;87.77
30730;BME280;17476;48.458;7.928;2023-01-27T08:55:56;100436.75;;;3.69;85.96
30730;BME280;17476;48.458;7.928;2023-01-27T08:58:23;100437.13;;;4.12;82.07
30730;BME280;17476;48.458;7.928;2023-01-27T09:00:49;100431.44;;;4.55;79.04
30730;BME280;17476;48.458;7.928;2023-01-27T09:03:15;100431.13;;;4.71;76.66
30730;BME280;17476;48.458;7.928;2023-01-27T09:05:41;100428.97;;;4.64;77.39
30730;BME280;17476;48.458;7.928;2023-01-27T09:08:08;100425.69;;;4.62;76.86
30730;BME280;17476;48.458;7.928;2023-01-27T09:10:40;100425.53;;;4.53;75.34
30730;BME280;17476;48.458;7.928;2023-01-27T09:13:07;100432.50;;;4.28;77.47
30730;BME280;17476;48.458;7.928;2023-01-27T09:15:35;100432.63;;;4.03;77.71
30730;BME280;17476;48.458;7.928;2023-01-27T09:18:01;100431.25;;;4.10;77.93
30730;BME280;17476;48.458;7.928;2023-01-27T09:20:27;100422.88;;;4.06;76.51
30730;BME280;17476;48.458;7.928;2023-01-27T09:22:57;100422.50;;;4.00;75.22
30730;BME280;17476;48.458;7.928;2023-01-27T09:25:23;100434.50;;;4.01;76.46
30730;BME280;17476;48.458;7.928;2023-01-27T09:27:57;100433.38;;;4.16;75.11
30730;BME280;17476;48.458;7.928;2023-01-27T09:30:25;100442.13;;;4.26;74.22
30730;BME280;17476;48.458;7.928;2023-01-27T09:32:51;100442.44;;;4.34;78.14
30730;BME280;17476;48.458;7.928;2023-01-27T09:35:17;100444.66;;;4.39;77.36
30730;BME280;17476;48.458;7.928;2023-01-27T09:37:53;100445.41;;;4.52;77.17
30730;BME280;17476;48.458;7.928;2023-01-27T09:41:15;100447.31;;;4.50;72.49
30730;BME280;17476;48.458;7.928;2023-01-27T09:43:27;100449.22;;;4.59;74.04
30730;BME280;17476;48.458;7.928;2023-01-27T09:52:32;100459.69;;;4.58;72.14
30730;BME280;17476;48.458;7.928;2023-01-27T09:55:43;100459.44;;;4.50;72.01
30730;BME280;17476;48.458;7.928;2023-01-27T09:58:59;100461.31;;;4.48;73.56
30730;BME280;17476;48.458;7.928;2023-01-27T10:01:55;100464.34;;;4.42;74.85
30730;BME280;17476;48.458;7.928;2023-01-27T10:17:18;100465.09;;;4.31;73.61
30730;BME280;17476;48.458;7.928;2023-01-27T10:23:19;100467.88;;;4.41;76.42
30730;BME280;17476;48.458;7.928;2023-01-27T10:26:34;100468.03;;;4.50;75.78
30730;BME280;17476;48.458;7.928;2023-01-27T10:29:25;100465.09;;;4.55;73.27
30730;BME280;17476;48.458;7.928;2023-01-27T10:32:23;100460.84;;;4.54;74.60
30730;BME280;17476;48.458;7.928;2023-01-27T10:37:34;100444.84;;;4.49;73.50
30730;BME280;17476;48.458;7.928;2023-01-27T10:46:55;100436.06;;;4.62;74.07
30730;BME280;17476;48.458;7.928;2023-01-27T10:49:34;100441.06;;;4.53;72.55
30730;BME280;17476;48.458;7.928;2023-01-27T10:52:13;100440.69;;;4.46;73.91
30730;BME280;17476;48.458;7.928;2023-01-27T10:55:06;100444.97;;;4.58;73.96
30730;BME280;17476;48.458;7.928;2023-01-27T10:57:46;100450.34;;;4.44;70.41
30730;BME280;17476;48.458;7.928;2023-01-27T11:00:30;100451.41;;;4.42;73.44
30730;BME280;17476;48.458;7.928;2023-01-27T11:03:21;100446.81;;;4.45;74.55
30730;BME280;17476;48.458;7.928;2023-01-27T11:05:57;100434.59;;;4.47;74.17
30730;BME280;17476;48.458;7.928;2023-01-27T11:08:31;100432.97;;;4.57;74.54
30730;BME280;17476;48.458;7.928;2023-01-27T11:11:02;100427.72;;;4.70;75.10
30730;BME280;17476;48.458;7.928;2023-01-27T11:13:50;100424.78;;;4.75;72.88
30730;BME280;17476;48.458;7.928;2023-01-27T11:16:31;100423.38;;;4.82;74.41
30730;BME280;17476;48.458;7.928;2023-01-27T11:19:13;100412.91;;;4.83;70.77
30730;BME280;17476;48.458;7.928;2023-01-27T11:21:42;100432.19;;;4.79;69.49
30730;BME280;17476;48.458;7.928;2023-01-27T11:24:42;100425.03;;;4.83;71.27
30730;BME280;17476;48.458;7.928;2023-01-27T11:27:52;100428.81;;;5.01;73.37
30730;BME280;17476;48.458;7.928;2023-01-27T11:30:45;100431.78;;;5.08;74.09
30730;BME280;17476;48.458;7.928;2023-01-27T11:36:25;100434.03;;;5.24;73.92
30730;BME280;17476;48.458;7.928;2023-01-27T11:38:52;100430.03;;;5.19;71.03
30730;BME280;17476;48.458;7.928;2023-01-27T11:41:19;100427.56;;;5.29;72.45
30730;BME280;17476;48.458;7.928;2023-01-27T11:43:45;100432.63;;;5.31;73.22
30730;BME280;17476;48.458;7.928;2023-01-27T11:46:18;100431.06;;;5.28;69.76
30730;BME280;17476;48.458;7.928;2023-01-27T11:48:55;100429.56;;;5.26;71.00
30730;BME280;17476;48.458;7.928;2023-01-27T11:51:25;100428.25;;;5.31;72.21
30730;BME280;17476;48.458;7.928;2023-01-27T11:56:47;100410.47;;;5.49;71.90
30730;BME280;17476;48.458;7.928;2023-01-27T11:59:27;100410.56;;;5.59;73.84
30730;BME280;17476;48.458;7.928;2023-01-27T12:02:23;100403.13;;;5.65;72.96
30730;BME280;17476;48.458;7.928;2023-01-27T12:05:27;100405.59;;;5.78;73.99
30730;BME280;17476;48.458;7.928;2023-01-27T12:07:59;100408.06;;;5.91;74.23
30730;BME280;17476;48.458;7.928;2023-01-27T12:13:08;100403.09;;;5.99;67.56
30730;BME280;17476;48.458;7.928;2023-01-27T12:15:35;100404.59;;;6.01;71.18
30730;BME280;17476;48.458;7.928;2023-01-27T12:18:14;100396.97;;;6.21;71.72
30730;BME280;17476;48.458;7.928;2023-01-27T12:20:49;100394.47;;;6.31;66.51
30730;BME280;17476;48.458;7.928;2023-01-27T12:23:52;100389.97;;;6.33;67.71
30730;BME280;17476;48.458;7.928;2023-01-27T12:26:37;100383.47;;;6.38;69.95
30730;BME280;17476;48.458;7.928;2023-01-27T12:29:37;100380.78;;;6.49;71.04
30730;BME280;17476;48.458;7.928;2023-01-27T12:31:59;100387.34;;;6.65;69.97
30730;BME280;17476;48.458;7.928;2023-01-27T12:36:55;100370.91;;;6.85;66.75
30730;BME280;17476;48.458;7.928;2023-01-27T12:39:39;100369.53;;;6.91;67.60
30730;BME280;17476;48.458;7.928;2023-01-27T12:42:39;100369.88;;;6.76;65.64
30730;BME280;17476;48.458;7.928;2023-01-27T12:50:54;100363.94;;;6.65;67.81
30730;BME280;17476;48.458;7.928;2023-01-27T12:53:28;100372.13;;;6.60;66.19
30730;BME280;17476;48.458;7.928;2023-01-27T12:56:08;100365.72;;;6.64;66.42
30730;BME280;17476;48.458;7.928;2023-01-27T13:04:20;100376.72;;;6.56;67.40
30730;BME280;17476;48.458;7.928;2023-01-27T13:06:53;100374.13;;;6.56;65.74
30730;BME280;17476;48.458;7.928;2023-01-27T13:09:54;100373.31;;;6.56;67.13
30730;BME280;17476;48.458;7.928;2023-01-27T13:12:35;100374.41;;;6.53;66.44
30730;BME280;17476;48.458;7.928;2023-01-27T13:15:21;100372.81;;;6.41;65.06
30730;BME280;17476;48.458;7.928;2023-01-27T13:17:53;100369.44;;;6.29;64.95
30730;BME280;17476;48.458;7.928;2023-01-27T13:20:47;100358.16;;;6.19;66.85
30730;BME280;17476;48.458;7.928;2023-01-27T13:23:25;100362.75;;;6.16;66.74
30730;BME280;17476;48.458;7.928;2023-01-27T13:26:09;100385.72;;;6.11;65.32
30730;BME280;17476;48.458;7.928;2023-01-27T13:37:50;100412.13;;;5.39;68.31
30730;BME280;17476;48.458;7.928;2023-01-27T13:40:29;100416.03;;;5.22;67.91
30730;BME280;17476;48.458;7.928;2023-01-27T13:43:19;100418.22;;;5.04;69.22
30730;BME280;17476;48.458;7.928;2023-01-27T13:45:59;100409.13;;;4.87;70.89
30730;BME280;17476;48.458;7.928;2023-01-27T13:48:43;100411.47;;;4.79;72.06
30730;BME280;17476;48.458;7.928;2023-01-27T13:51:17;100408.41;;;4.85;70.31
30730;BME280;17476;48.458;7.928;2023-01-27T13:53:45;100398.63;;;4.78;69.88
30730;BME280;17476;48.458;7.928;2023-01-27T13:57:04;100407.19;;;4.67;72.48
30730;BME280;17476;48.458;7.928;2023-01-27T14:08:33;100410.16;;;4.74;72.37
30730;BME280;17476;48.458;7.928;2023-01-27T14:13:58;100421.25;;;4.87;70.90
30730;BME280;17476;48.458;7.928;2023-01-27T14:22:05;100427.78;;;4.57;72.67
30730;BME280;17476;48.458;7.928;2023-01-27T14:24:51;100424.50;;;4.55;71.76
30730;BME280;17476;48.458;7.928;2023-01-27T14:27:42;100432.34;;;4.43;72.20
30730;BME280;17476;48.458;7.928;2023-01-27T14:30:42;100428.19;;;4.40;73.38
30730;BME280;17476;48.458;7.928;2023-01-27T14:33:48;100418.56;;;4.53;73.75
30730;BME280;17476;48.458;7.928;2023-01-27T14:36:44;100429.75;;;4.54;71.96
30730;BME280;17476;48.458;7.928;2023-01-27T14:39:35;100432.00;;;4.47;74.23
30730;BME280;17476;48.458;7.928;2023-01-27T14:42:44;100435.88;;;4.42;73.14
30730;BME280;17476;48.458;7.928;2023-01-27T14:45:39;100438.00;;;4.24;75.11
30730;BME280;17476;48.458;7.928;2023-01-27T14:48:36;100432.44;;;4.17;73.64
30730;BME280;17476;48.458;7.928;2023-01-27T14:51:48;100429.97;;;4.16;73.03
30730;BME280;17476;48.458;7.928;2023-01-27T14:54:48;100416.91;;;4.17;73.39
30730;BME280;17476;48.458;7.928;2023-01-27T15:01:03;100426.34;;;4.18;75.07